createdAt,value
2023-05-16T00:02:02.497Z,67.61
2023-05-16T00:04:30.954Z,67.24
2023-05-16T00:06:58.986Z,67.48
2023-05-16T00:09:27.549Z,67.53
2023-05-16T00:11:56.317Z,67.39
2023-05-16T00:14:26.648Z,67.61
2023-05-16T00:16:55.312Z,67.32
2023-05-16T00:19:26.684Z,67.55
2023-05-16T00:21:54.978Z,67.44
2023-05-16T00:24:23.603Z,67.37
2023-05-16T00:26:51.636Z,67.37
2023-05-16T00:29:20.105Z,67.61
2023-05-16T00:31:48.089Z,67.84
2023-05-16T00:34:16.495Z,67.90
2023-05-16T00:36:46.131Z,67.64
2023-05-16T00:39:14.219Z,67.65
2023-05-16T00:41:42.477Z,67.90
2023-05-16T00:44:11.414Z,67.69
2023-05-16T00:46:40.278Z,68.01
2023-05-16T00:49:09.347Z,68.32
2023-05-16T00:51:40.048Z,67.95
2023-05-16T00:54:09.838Z,67.98
2023-05-16T00:56:38.176Z,67.86
2023-05-16T00:59:06.695Z,67.94
2023-05-16T01:01:36.892Z,68.10
2023-05-16T01:04:05.887Z,68.38
2023-05-16T01:06:36.487Z,68.50
2023-05-16T01:09:07.921Z,68.54
2023-05-16T01:11:52.100Z,68.16
2023-05-16T01:14:31.136Z,67.93
2023-05-16T01:17:08.588Z,67.90
2023-05-16T01:19:54.628Z,68.60
2023-05-16T01:22:54.390Z,68.19
2023-05-16T01:25:33.554Z,67.94
2023-05-16T01:28:03.866Z,67.98
2023-05-16T01:30:36.294Z,68.04
2023-05-16T01:33:04.932Z,67.90
2023-05-16T01:35:33.444Z,68.21
2023-05-16T01:38:12.912Z,68.14
2023-05-16T01:40:54.371Z,67.83
2023-05-16T01:43:32.383Z,67.99
2023-05-16T01:46:08.892Z,68.21
2023-05-16T01:48:50.727Z,68.19
2023-05-16T01:51:23.538Z,68.07
2023-05-16T01:53:58.493Z,68.14
2023-05-16T01:56:28.034Z,68.63
2023-05-16T01:59:00.729Z,68.59
2023-05-16T02:01:31.932Z,68.31
2023-05-16T02:04:01.487Z,68.39
2023-05-16T02:06:29.627Z,68.34
2023-05-16T02:08:58.682Z,68.52
2023-05-16T02:11:27.054Z,68.41
2023-05-16T02:13:55.302Z,68.29
2023-05-16T02:16:24.775Z,68.52
2023-05-16T02:18:53.211Z,68.34
2023-05-16T02:21:21.491Z,68.37
2023-05-16T02:23:50.030Z,68.28
2023-05-16T02:26:18.035Z,68.78
2023-05-16T02:28:46.386Z,68.33
2023-05-16T02:31:14.498Z,68.37
2023-05-16T02:33:44.147Z,68.56
2023-05-16T02:36:12.321Z,68.75
2023-05-16T02:38:40.425Z,68.24
2023-05-16T02:41:08.597Z,68.54
2023-05-16T02:43:36.578Z,68.29
2023-05-16T02:46:06.716Z,68.58
2023-05-16T02:48:34.652Z,68.80
2023-05-16T02:51:05.924Z,68.87
2023-05-16T02:53:33.982Z,68.74
2023-05-16T02:56:02.902Z,69.05
2023-05-16T02:58:30.906Z,68.95
2023-05-16T03:00:59.329Z,69.20
2023-05-16T03:03:27.536Z,68.98
2023-05-16T03:05:56.053Z,68.83
2023-05-16T03:08:25.442Z,68.69
2023-05-16T03:10:53.746Z,68.51
2023-05-16T03:13:21.826Z,69.04
2023-05-16T03:15:52.929Z,68.91
2023-05-16T03:18:21.403Z,69.06
2023-05-16T03:20:50.555Z,69.06
2023-05-16T03:23:18.750Z,68.98
2023-05-16T03:25:48.449Z,68.83
2023-05-16T03:28:19.048Z,69.17
2023-05-16T03:30:47.533Z,69.00
2023-05-16T03:33:16.250Z,69.09
2023-05-16T03:35:44.958Z,69.16
2023-05-16T03:38:14.576Z,69.40
2023-05-16T03:40:45.576Z,69.33
2023-05-16T03:43:14.866Z,69.04
2023-05-16T03:45:44.286Z,69.27
2023-05-16T03:48:12.435Z,69.20
2023-05-16T03:50:41.238Z,69.12
2023-05-16T03:53:10.216Z,68.77
2023-05-16T03:55:38.790Z,68.71
2023-05-16T03:58:08.200Z,68.81
2023-05-16T04:00:37.811Z,68.61
2023-05-16T04:03:06.618Z,68.60
2023-05-16T04:05:34.938Z,68.67
2023-05-16T04:08:03.475Z,68.54
2023-05-16T04:10:31.668Z,68.62
2023-05-16T04:12:59.985Z,68.58
2023-05-16T04:15:28.646Z,68.06
2023-05-16T04:17:59.025Z,68.30
2023-05-16T04:20:27.211Z,67.90
2023-05-16T04:22:55.665Z,68.14
2023-05-16T04:25:23.852Z,67.54
2023-05-16T04:27:52.628Z,67.82
2023-05-16T04:30:20.835Z,67.89
2023-05-16T04:32:50.285Z,67.98
2023-05-16T04:35:19.876Z,67.88
2023-05-16T04:37:47.772Z,67.89
2023-05-16T04:40:17.299Z,67.77
2023-05-16T04:42:45.406Z,67.85
2023-05-16T04:45:14.537Z,67.49
2023-05-16T04:47:42.522Z,67.78
2023-05-16T04:50:11.365Z,67.90
2023-05-16T04:52:41.136Z,67.52
2023-05-16T04:55:10.316Z,67.65
2023-05-16T04:57:38.849Z,67.76
2023-05-16T05:00:12.064Z,67.55
2023-05-16T05:02:41.839Z,67.53
2023-05-16T05:05:10.528Z,68.13
2023-05-16T05:07:40.961Z,68.21
2023-05-16T05:10:12.250Z,68.32
2023-05-16T05:12:40.692Z,68.19
2023-05-16T05:15:09.410Z,68.10
2023-05-16T05:17:38.856Z,67.97
2023-05-16T05:20:08.704Z,67.99
2023-05-16T05:22:37.075Z,67.83
2023-05-16T05:25:07.673Z,67.51
2023-05-16T05:27:35.890Z,66.91
2023-05-16T05:30:04.285Z,67.08
2023-05-16T05:32:32.712Z,67.18
2023-05-16T05:35:01.599Z,66.43
2023-05-16T05:37:31.357Z,67.00
2023-05-16T05:39:59.582Z,66.50
2023-05-16T05:42:28.992Z,66.61
2023-05-16T05:44:57.410Z,66.97
2023-05-16T05:47:25.950Z,67.13
2023-05-16T05:49:54.158Z,66.92
2023-05-16T05:52:22.527Z,66.44
2023-05-16T05:54:51.647Z,66.51
2023-05-16T05:57:19.901Z,66.08
2023-05-16T05:59:49.244Z,66.34
2023-05-16T06:02:17.648Z,65.71
2023-05-16T06:04:46.416Z,66.55
2023-05-16T06:07:16.093Z,66.23
2023-05-16T06:09:44.820Z,65.80
2023-05-16T06:12:12.800Z,65.86
2023-05-16T06:14:41.077Z,65.75
2023-05-16T06:17:10.724Z,65.66
2023-05-16T06:19:39.087Z,66.38
2023-05-16T06:22:07.167Z,66.18
2023-05-16T06:24:35.452Z,66.63
2023-05-16T06:27:03.682Z,65.97
2023-05-16T06:29:31.640Z,66.44
2023-05-16T06:32:00.006Z,66.11
2023-05-16T06:34:29.443Z,65.83
2023-05-16T06:36:58.907Z,65.28
2023-05-16T06:39:27.336Z,66.04
2023-05-16T06:41:56.739Z,66.49
2023-05-16T06:44:25.696Z,65.50
2023-05-16T06:46:54.709Z,65.44
2023-05-16T06:49:22.988Z,65.28
2023-05-16T06:51:52.732Z,64.29
2023-05-16T06:54:20.860Z,63.31
2023-05-16T06:56:48.871Z,63.22
2023-05-16T06:59:16.838Z,62.95
2023-05-16T07:01:44.998Z,62.77
2023-05-16T07:04:13.267Z,62.62
2023-05-16T07:06:41.647Z,62.17
2023-05-16T07:09:11.450Z,60.77
2023-05-16T07:11:39.564Z,61.26
2023-05-16T07:14:07.645Z,60.45
2023-05-16T07:16:36.020Z,59.94
2023-05-16T07:19:05.196Z,60.21
2023-05-16T07:21:33.626Z,60.44
2023-05-16T07:24:02.108Z,59.84
2023-05-16T07:26:32.002Z,60.36
2023-05-16T07:29:00.159Z,59.39
2023-05-16T07:31:28.484Z,59.00
2023-05-16T07:33:57.081Z,59.57
2023-05-16T07:36:26.008Z,58.51
2023-05-16T07:38:54.498Z,59.15
2023-05-16T07:41:22.704Z,59.24
2023-05-16T07:43:52.312Z,60.14
2023-05-16T07:46:20.585Z,59.42
2023-05-16T07:48:49.264Z,59.92
2023-05-16T07:51:17.878Z,60.00
2023-05-16T07:53:45.949Z,60.30
2023-05-16T07:56:14.280Z,60.78
2023-05-16T07:58:43.299Z,61.03
2023-05-16T08:01:12.948Z,61.26
2023-05-16T08:03:41.218Z,59.83
2023-05-16T08:06:09.616Z,60.58
2023-05-16T08:08:38.103Z,60.90
2023-05-16T08:11:06.807Z,61.56
2023-05-16T08:13:34.909Z,62.74
2023-05-16T08:16:04.561Z,62.80
2023-05-16T08:18:34.524Z,63.67
2023-05-16T08:21:03.066Z,64.36
2023-05-16T08:23:32.348Z,64.64
2023-05-16T08:26:00.483Z,65.71
2023-05-16T08:28:28.665Z,65.36
2023-05-16T08:30:57.662Z,65.43
2023-05-16T08:33:25.853Z,65.63
2023-05-16T08:35:55.269Z,66.08
2023-05-16T08:38:23.578Z,66.91
2023-05-16T08:40:51.787Z,66.66
2023-05-16T08:43:20.082Z,66.21
2023-05-16T08:45:49.184Z,65.80
2023-05-16T08:48:19.380Z,65.64
2023-05-16T08:50:48.089Z,66.70
2023-05-16T08:53:27.942Z,67.53
2023-05-16T08:55:58.200Z,68.09
2023-05-16T08:58:28.523Z,68.28
2023-05-16T09:00:58.214Z,68.16
2023-05-16T09:03:28.950Z,68.63
2023-05-16T09:05:57.865Z,68.93
2023-05-16T09:08:28.010Z,69.73
2023-05-16T09:10:56.459Z,69.03
2023-05-16T09:13:25.620Z,69.07
2023-05-16T09:16:12.986Z,69.89
2023-05-16T09:18:42.895Z,70.18
2023-05-16T09:21:12.774Z,69.53
2023-05-16T09:23:44.616Z,68.90
2023-05-16T09:26:13.126Z,69.51
2023-05-16T09:28:42.612Z,68.84
2023-05-16T09:31:23.069Z,68.78
2023-05-16T09:33:51.588Z,68.97
2023-05-16T09:36:21.130Z,69.07
2023-05-16T09:38:52.255Z,68.51
2023-05-16T09:41:22.665Z,69.12
2023-05-16T09:43:51.403Z,68.72
2023-05-16T09:46:19.996Z,68.90
2023-05-16T09:48:49.095Z,69.27
2023-05-16T09:51:24.045Z,69.79
2023-05-16T09:53:53.831Z,69.15
2023-05-16T09:56:21.871Z,69.15
2023-05-16T09:58:53.718Z,68.22
2023-05-16T10:01:22.032Z,69.02
2023-05-16T10:03:50.705Z,68.69
2023-05-16T10:06:20.314Z,68.99
2023-05-16T10:08:49.639Z,68.17
2023-05-16T10:11:20.533Z,68.63
2023-05-16T10:13:53.379Z,67.99
2023-05-16T10:16:24.195Z,68.08
2023-05-16T10:18:53.480Z,68.64
2023-05-16T10:21:24.809Z,69.19
2023-05-16T10:23:57.054Z,69.50
2023-05-16T10:26:28.199Z,70.28
2023-05-16T10:28:57.637Z,69.89
2023-05-16T10:31:26.844Z,69.90
2023-05-16T10:33:55.270Z,68.81
2023-05-16T10:36:24.353Z,68.59
2023-05-16T10:38:53.715Z,69.02
2023-05-16T10:41:22.700Z,68.99
2023-05-16T10:43:59.972Z,69.93
2023-05-16T10:46:29.328Z,69.97
2023-05-16T10:48:58.840Z,70.73
2023-05-16T10:51:39.064Z,70.12
2023-05-16T10:54:11.017Z,70.23
2023-05-16T10:56:39.857Z,70.69
2023-05-16T10:59:26.174Z,70.24
2023-05-16T11:01:57.015Z,70.62
2023-05-16T11:04:45.566Z,70.79
2023-05-16T11:07:13.887Z,71.18
2023-05-16T11:09:45.636Z,71.59
2023-05-16T11:12:14.580Z,71.88
2023-05-16T11:14:45.174Z,71.74
2023-05-16T11:17:15.522Z,71.66
2023-05-16T11:19:46.515Z,71.64
2023-05-16T11:22:24.274Z,71.31
2023-05-16T11:25:00.680Z,70.70
2023-05-16T11:27:31.056Z,71.84
2023-05-16T11:30:14.095Z,72.10
2023-05-16T11:32:43.987Z,72.53
2023-05-16T11:35:15.079Z,71.81
2023-05-16T11:37:43.903Z,71.91
2023-05-16T11:40:14.614Z,71.40
2023-05-16T11:42:44.752Z,72.20
2023-05-16T11:45:18.178Z,72.64
2023-05-16T11:47:49.456Z,72.07
2023-05-16T11:50:20.211Z,71.57
2023-05-16T11:52:54.204Z,69.80
2023-05-16T11:55:40.422Z,69.54
2023-05-16T11:58:12.538Z,71.85
2023-05-16T12:00:49.019Z,74.68
2023-05-16T12:03:17.725Z,76.58
2023-05-16T12:05:52.212Z,76.56
2023-05-16T12:08:21.277Z,76.16
2023-05-16T12:10:50.704Z,75.10
2023-05-16T12:13:20.785Z,74.36
2023-05-16T12:15:53.035Z,73.91
2023-05-16T12:18:22.534Z,73.04
2023-05-16T12:20:51.012Z,72.82
2023-05-16T12:23:19.239Z,73.10
2023-05-16T12:25:49.412Z,72.38
2023-05-16T12:28:17.505Z,71.93
2023-05-16T12:30:47.918Z,70.53
2023-05-16T12:33:18.063Z,70.73
2023-05-16T12:35:48.873Z,70.11
2023-05-16T12:38:18.182Z,69.67
2023-05-16T12:40:47.568Z,68.38
2023-05-16T12:43:16.526Z,68.05
2023-05-16T12:45:52.040Z,68.15
2023-05-16T12:48:22.154Z,68.17
2023-05-16T12:50:51.048Z,68.33
2023-05-16T12:53:20.001Z,67.31
2023-05-16T12:55:48.405Z,67.32
2023-05-16T12:58:16.634Z,66.80
2023-05-16T13:00:44.834Z,67.23
2023-05-16T13:03:13.429Z,66.59
2023-05-16T13:05:43.128Z,66.74
2023-05-16T13:08:11.132Z,66.73
2023-05-16T13:10:39.833Z,64.86
2023-05-16T13:13:08.354Z,64.59
2023-05-16T13:15:36.775Z,63.74
2023-05-16T13:18:05.213Z,64.01
2023-05-16T13:20:33.486Z,61.16
2023-05-16T13:23:02.991Z,58.39
2023-05-16T13:25:31.211Z,56.33
2023-05-16T13:27:59.679Z,54.55
2023-05-16T13:30:29.269Z,52.90
2023-05-16T13:32:57.264Z,52.54
2023-05-16T13:35:25.724Z,52.67
2023-05-16T13:37:53.895Z,53.24
2023-05-16T13:40:23.514Z,53.42
2023-05-16T13:42:51.722Z,53.96
2023-05-16T13:45:19.808Z,54.21
2023-05-16T13:47:50.212Z,53.60
2023-05-16T13:50:18.259Z,54.05
2023-05-16T13:52:47.506Z,55.03
2023-05-16T13:55:15.814Z,55.49
2023-05-16T13:57:45.363Z,55.82
2023-05-16T14:02:45.021Z,57.22
2023-05-16T14:05:13.197Z,57.46
2023-05-16T14:07:41.441Z,57.63
2023-05-16T14:10:10.742Z,57.77
2023-05-16T14:12:38.951Z,58.04
2023-05-16T14:15:10.077Z,58.07
2023-05-16T14:17:38.199Z,58.66
2023-05-16T14:20:10.119Z,58.93
2023-05-16T14:22:38.701Z,59.29
2023-05-16T14:25:08.249Z,59.80
2023-05-16T14:27:36.237Z,60.33
2023-05-16T14:30:05.060Z,60.67
2023-05-16T14:32:34.862Z,61.30
2023-05-16T14:35:04.069Z,62.03
2023-05-16T14:37:32.517Z,63.25
2023-05-16T14:40:00.898Z,63.31
2023-05-16T14:42:29.104Z,64.38
2023-05-16T14:44:57.349Z,65.37
2023-05-16T14:47:25.668Z,66.21
2023-05-16T14:49:56.295Z,66.27
2023-05-16T14:52:24.857Z,66.59
2023-05-16T14:54:53.010Z,67.14
2023-05-16T14:57:21.077Z,67.43
2023-05-16T14:59:50.812Z,68.06
2023-05-16T15:02:19.121Z,68.65
2023-05-16T15:04:47.200Z,69.20
2023-05-16T15:07:16.723Z,68.28
2023-05-16T15:09:45.064Z,68.73
2023-05-16T15:12:14.092Z,69.25
2023-05-16T15:14:41.994Z,69.29
2023-05-16T15:17:10.272Z,69.60
2023-05-16T15:19:38.612Z,69.79
2023-05-16T15:22:08.112Z,70.24
2023-05-16T15:24:37.983Z,69.75
2023-05-16T15:27:06.593Z,70.04
2023-05-16T15:29:34.645Z,70.16
2023-05-16T15:32:06.748Z,69.96
2023-05-16T15:34:36.414Z,69.82
2023-05-16T15:37:04.768Z,70.68
2023-05-16T15:39:34.254Z,70.44
2023-05-16T15:44:37.340Z,69.57
2023-05-16T15:47:06.194Z,70.43
2023-05-16T15:49:34.490Z,70.41
2023-05-16T15:52:03.249Z,70.94
2023-05-16T15:54:32.302Z,71.17
2023-05-16T15:57:00.525Z,71.21
2023-05-16T15:59:29.934Z,70.84
2023-05-16T16:01:58.037Z,71.21
2023-05-16T16:04:26.192Z,71.96
2023-05-16T16:06:54.228Z,71.97
2023-05-16T16:09:22.468Z,72.37
2023-05-16T16:11:52.413Z,71.59
2023-05-16T16:14:21.876Z,71.92
2023-05-16T16:16:51.915Z,71.73
2023-05-16T16:19:20.385Z,71.85
2023-05-16T16:21:49.111Z,72.17
2023-05-16T16:24:17.484Z,72.58
2023-05-16T16:26:46.457Z,72.91
2023-05-16T16:29:14.527Z,73.46
2023-05-16T16:31:42.628Z,73.27
2023-05-16T16:34:12.086Z,73.51
2023-05-16T16:36:40.043Z,73.41
2023-05-16T16:39:08.069Z,73.27
2023-05-16T16:41:36.048Z,73.31
2023-05-16T16:44:04.008Z,72.76
2023-05-16T16:46:32.482Z,72.96
2023-05-16T16:49:00.524Z,73.07
2023-05-16T16:51:34.472Z,73.39
2023-05-16T16:54:02.448Z,72.44
2023-05-16T16:56:30.726Z,72.57
2023-05-16T16:58:58.874Z,72.73
2023-05-16T17:01:29.741Z,73.10
2023-05-16T17:03:58.546Z,72.48
2023-05-16T17:06:26.976Z,73.05
2023-05-16T17:08:56.593Z,73.46
2023-05-16T17:11:24.588Z,72.88
2023-05-16T17:13:59.133Z,73.17
2023-05-16T17:16:28.774Z,73.09
2023-05-16T17:18:56.865Z,72.86
2023-05-16T17:21:25.242Z,72.30
2023-05-16T17:23:53.414Z,72.63
2023-05-16T17:26:23.172Z,71.98
2023-05-16T17:28:51.868Z,72.42
2023-05-16T17:31:20.497Z,72.19
2023-05-16T17:33:48.640Z,71.98
2023-05-16T17:36:16.750Z,71.74
2023-05-16T17:38:44.792Z,71.27
2023-05-16T17:41:12.897Z,71.82
2023-05-16T17:43:45.316Z,71.64
2023-05-16T17:46:14.573Z,72.15
2023-05-16T17:48:42.641Z,71.73
2023-05-16T17:51:11.089Z,71.37
2023-05-16T17:53:39.219Z,71.46
2023-05-16T17:56:07.693Z,71.80
2023-05-16T17:58:36.268Z,71.79
2023-05-16T18:01:08.269Z,71.66
2023-05-16T18:03:37.016Z,72.27
2023-05-16T18:06:05.143Z,72.16
2023-05-16T18:08:33.269Z,71.39
2023-05-16T18:11:01.459Z,71.87
2023-05-16T18:13:29.818Z,72.67
2023-05-16T18:15:57.832Z,72.56
2023-05-16T18:18:28.377Z,72.31
2023-05-16T18:20:57.125Z,73.18
2023-05-16T18:23:26.221Z,73.37
2023-05-16T18:25:54.472Z,74.01
2023-05-16T18:28:22.880Z,74.32
2023-05-16T18:30:51.314Z,74.16
2023-05-16T18:33:20.259Z,74.52
2023-05-16T18:35:50.102Z,74.23
2023-05-16T18:38:31.218Z,75.10
2023-05-16T18:41:00.774Z,73.09
2023-05-16T18:43:28.803Z,72.94
2023-05-16T18:45:57.771Z,74.52
2023-05-16T18:48:26.180Z,73.80
2023-05-16T18:50:56.419Z,73.34
2023-05-16T18:53:24.667Z,71.64
2023-05-16T18:55:52.874Z,71.41
2023-05-16T18:58:21.219Z,72.08
2023-05-16T19:00:50.001Z,73.06
2023-05-16T19:03:18.468Z,72.84
2023-05-16T19:05:46.678Z,73.62
2023-05-16T19:08:16.387Z,73.54
2023-05-16T19:10:45.137Z,74.29
2023-05-16T19:13:13.385Z,74.04
2023-05-16T19:15:41.363Z,73.97
2023-05-16T19:18:09.637Z,73.77
2023-05-16T19:20:37.780Z,73.69
2023-05-16T19:23:06.619Z,72.51
2023-05-16T19:25:35.964Z,72.36
2023-05-16T19:28:06.395Z,71.87
2023-05-16T19:30:34.576Z,71.75
2023-05-16T19:33:02.971Z,71.61
2023-05-16T19:35:31.729Z,70.73
2023-05-16T19:38:00.907Z,70.35
2023-05-16T19:40:29.793Z,70.07
2023-05-16T19:42:59.413Z,69.59
2023-05-16T19:45:27.702Z,70.18
2023-05-16T19:47:56.100Z,70.33
2023-05-16T19:50:24.246Z,70.13
2023-05-16T19:52:53.213Z,70.58
2023-05-16T19:55:22.311Z,70.28
2023-05-16T19:57:52.486Z,70.83
2023-05-16T20:00:22.541Z,71.49
2023-05-16T20:02:51.804Z,71.15
2023-05-16T20:05:23.436Z,71.20
2023-05-16T20:07:52.042Z,71.32
2023-05-16T20:10:21.873Z,71.32
2023-05-16T20:12:50.588Z,71.48
2023-05-16T20:15:18.844Z,71.19
2023-05-16T20:17:48.217Z,70.89
2023-05-16T20:20:16.607Z,71.07
2023-05-16T20:22:45.978Z,71.17
2023-05-16T20:25:13.993Z,70.58
2023-05-16T20:27:42.333Z,71.09
2023-05-16T20:30:11.091Z,70.98
2023-05-16T20:32:39.554Z,70.70
2023-05-16T20:35:11.317Z,70.85
2023-05-16T20:37:39.950Z,70.24
2023-05-16T20:40:09.465Z,70.57
2023-05-16T20:42:37.816Z,70.20
2023-05-16T20:45:06.495Z,69.96
2023-05-16T20:47:34.711Z,70.40
2023-05-16T20:50:02.776Z,70.62
2023-05-16T20:52:32.389Z,71.11
2023-05-16T20:55:01.718Z,70.68
2023-05-16T20:57:30.270Z,70.59
2023-05-16T20:59:58.355Z,70.65
2023-05-16T21:02:26.652Z,70.77
2023-05-16T21:04:55.272Z,71.15
2023-05-16T21:07:24.159Z,70.46
2023-05-16T21:09:53.602Z,69.62
2023-05-16T21:12:21.679Z,69.16
2023-05-16T21:14:49.657Z,68.90
2023-05-16T21:17:18.278Z,69.31
2023-05-16T21:19:48.675Z,69.01
2023-05-16T21:22:17.398Z,68.55
2023-05-16T21:24:45.671Z,68.48
2023-05-16T21:27:15.022Z,67.83
2023-05-16T21:29:43.148Z,67.54
2023-05-16T21:32:15.490Z,67.73
2023-05-16T21:34:44.315Z,67.67
2023-05-16T21:37:12.719Z,67.39
2023-05-16T21:39:41.074Z,67.49
2023-05-16T21:42:09.303Z,66.94
2023-05-16T21:44:39.006Z,66.94
2023-05-16T21:47:07.397Z,66.42
2023-05-16T21:49:36.192Z,66.41
2023-05-16T21:52:06.898Z,67.02
2023-05-16T21:54:35.999Z,65.94
2023-05-16T21:57:04.387Z,65.67
2023-05-16T21:59:32.322Z,66.05
2023-05-16T22:05:23.117Z,66.13
2023-05-16T22:07:51.460Z,65.42
2023-05-16T22:10:19.632Z,65.23
2023-05-16T22:12:47.688Z,65.70
2023-05-16T22:15:16.008Z,65.10
2023-05-16T22:17:44.391Z,65.19
2023-05-16T22:20:13.171Z,64.90
2023-05-16T22:22:43.771Z,65.16
2023-05-16T22:25:11.950Z,65.34
2023-05-16T22:27:40.505Z,65.59
2023-05-16T22:30:09.980Z,65.35
2023-05-16T22:32:38.081Z,64.79
2023-05-16T22:35:07.693Z,64.55
2023-05-16T22:37:35.925Z,64.67
2023-05-16T22:40:06.040Z,64.23
2023-05-16T22:42:33.991Z,63.33
2023-05-16T22:45:02.239Z,63.90
2023-05-16T22:47:32.024Z,63.59
2023-05-16T22:50:00.061Z,64.25
2023-05-16T22:52:28.665Z,63.69
2023-05-16T22:54:58.447Z,63.86
2023-05-16T22:57:28.185Z,63.46
2023-05-16T22:59:56.637Z,62.94
2023-05-16T23:02:25.033Z,63.04
2023-05-16T23:04:53.421Z,63.47
2023-05-16T23:07:21.798Z,62.00
2023-05-16T23:09:50.013Z,61.86
2023-05-16T23:12:18.086Z,62.34
2023-05-16T23:14:47.432Z,62.41
2023-05-16T23:17:16.032Z,61.98
2023-05-16T23:19:44.339Z,62.42
2023-05-16T23:22:12.339Z,62.30
2023-05-16T23:24:40.248Z,61.97
2023-05-16T23:27:09.022Z,61.44
2023-05-16T23:29:37.469Z,62.56
2023-05-16T23:32:07.619Z,61.38
2023-05-16T23:34:35.716Z,62.14
2023-05-16T23:37:04.805Z,61.81
2023-05-16T23:39:32.878Z,61.85
2023-05-16T23:42:01.725Z,61.53
2023-05-16T23:44:29.934Z,61.76
2023-05-16T23:46:58.625Z,62.55
2023-05-16T23:49:28.201Z,61.18
2023-05-16T23:51:58.175Z,61.23
2023-05-16T23:54:27.226Z,61.85
2023-05-16T23:56:55.406Z,62.16
2023-05-16T23:59:23.365Z,60.99
